sensor_id;sensor_type;location;lat;lon;timestamp;temperature;humidity
12870;DHT22;6503;48.572;13.460;2022-09-25T00:00:58;12.30;99.90
12870;DHT22;6503;48.572;13.460;2022-09-25T00:03:26;12.20;99.90
12870;DHT22;6503;48.572;13.460;2022-09-25T00:06:00;12.20;99.90
12870;DHT22;6503;48.572;13.460;2022-09-25T00:08:29;12.20;99.90
12870;DHT22;6503;48.572;13.460;2022-09-25T00:10:57;12.20;99.90
12870;DHT22;6503;48.572;13.460;2022-09-25T00:13:24;12.20;99.90
12870;DHT22;6503;48.572;13.460;2022-09-25T00:15:53;12.30;99.90
12870;DHT22;6503;48.572;13.460;2022-09-25T00:18:21;12.30;99.90
12870;DHT22;6503;48.572;13.460;2022-09-25T00:21:02;12.30;99.90
12870;DHT22;6503;48.572;13.460;2022-09-25T00:23:30;12.30;99.90
12870;DHT22;6503;48.572;13.460;2022-09-25T00:25:59;12.20;99.90
12870;DHT22;6503;48.572;13.460;2022-09-25T00:28:26;12.20;99.90
12870;DHT22;6503;48.572;13.460;2022-09-25T00:30:53;12.20;99.90
12870;DHT22;6503;48.572;13.460;2022-09-25T00:33:20;12.20;99.90
12870;DHT22;6503;48.572;13.460;2022-09-25T00:35:47;12.20;99.90
12870;DHT22;6503;48.572;13.460;2022-09-25T00:38:14;12.10;99.90
12870;DHT22;6503;48.572;13.460;2022-09-25T00:40:41;12.00;99.90
12870;DHT22;6503;48.572;13.460;2022-09-25T00:43:11;12.00;99.90
12870;DHT22;6503;48.572;13.460;2022-09-25T00:45:39;12.10;99.90
12870;DHT22;6503;48.572;13.460;2022-09-25T00:48:09;12.20;99.90
12870;DHT22;6503;48.572;13.460;2022-09-25T00:50:40;12.20;99.90
12870;DHT22;6503;48.572;13.460;2022-09-25T00:53:12;12.20;99.90
12870;DHT22;6503;48.572;13.460;2022-09-25T00:55:43;12.20;99.90
12870;DHT22;6503;48.572;13.460;2022-09-25T00:58:13;12.10;99.90
12870;DHT22;6503;48.572;13.460;2022-09-25T01:00:43;12.10;99.90
12870;DHT22;6503;48.572;13.460;2022-09-25T01:03:10;12.10;99.90
12870;DHT22;6503;48.572;13.460;2022-09-25T01:05:40;12.10;99.90
12870;DHT22;6503;48.572;13.460;2022-09-25T01:08:11;12.10;99.90
12870;DHT22;6503;48.572;13.460;2022-09-25T01:10:38;12.10;99.90
12870;DHT22;6503;48.572;13.460;2022-09-25T01:13:06;12.10;99.90
12870;DHT22;6503;48.572;13.460;2022-09-25T01:15:38;12.20;99.90
12870;DHT22;6503;48.572;13.460;2022-09-25T01:18:16;12.20;99.90
12870;DHT22;6503;48.572;13.460;2022-09-25T01:21:08;12.20;99.90
12870;DHT22;6503;48.572;13.460;2022-09-25T01:23:55;12.20;99.90
12870;DHT22;6503;48.572;13.460;2022-09-25T01:26:43;12.20;99.90
12870;DHT22;6503;48.572;13.460;2022-09-25T01:29:16;12.20;99.90
12870;DHT22;6503;48.572;13.460;2022-09-25T01:31:48;12.20;99.90
12870;DHT22;6503;48.572;13.460;2022-09-25T01:34:23;12.20;99.90
12870;DHT22;6503;48.572;13.460;2022-09-25T01:36:56;12.10;99.90
12870;DHT22;6503;48.572;13.460;2022-09-25T01:39:28;12.20;99.90
12870;DHT22;6503;48.572;13.460;2022-09-25T01:41:59;12.20;99.90
12870;DHT22;6503;48.572;13.460;2022-09-25T01:44:32;12.20;99.90
12870;DHT22;6503;48.572;13.460;2022-09-25T01:47:03;12.20;99.90
12870;DHT22;6503;48.572;13.460;2022-09-25T01:49:35;12.20;99.90
12870;DHT22;6503;48.572;13.460;2022-09-25T01:52:06;12.20;99.90
12870;DHT22;6503;48.572;13.460;2022-09-25T01:54:38;12.10;99.90
12870;DHT22;6503;48.572;13.460;2022-09-25T01:57:08;12.10;99.90
12870;DHT22;6503;48.572;13.460;2022-09-25T01:59:40;12.10;99.90
12870;DHT22;6503;48.572;13.460;2022-09-25T02:02:11;12.10;99.90
12870;DHT22;6503;48.572;13.460;2022-09-25T02:04:43;12.10;99.90
12870;DHT22;6503;48.572;13.460;2022-09-25T02:07:14;12.20;99.90
12870;DHT22;6503;48.572;13.460;2022-09-25T02:09:44;12.20;99.90
12870;DHT22;6503;48.572;13.460;2022-09-25T02:12:14;12.20;99.90
12870;DHT22;6503;48.572;13.460;2022-09-25T02:14:47;12.20;99.90
12870;DHT22;6503;48.572;13.460;2022-09-25T02:17:20;12.20;99.90
12870;DHT22;6503;48.572;13.460;2022-09-25T02:20:02;12.20;99.90
12870;DHT22;6503;48.572;13.460;2022-09-25T02:22:47;12.20;99.90
12870;DHT22;6503;48.572;13.460;2022-09-25T02:25:21;12.20;99.90
12870;DHT22;6503;48.572;13.460;2022-09-25T02:27:50;12.10;99.90
12870;DHT22;6503;48.572;13.460;2022-09-25T02:30:19;12.20;99.90
12870;DHT22;6503;48.572;13.460;2022-09-25T02:32:46;12.20;99.90
12870;DHT22;6503;48.572;13.460;2022-09-25T02:35:13;12.20;99.90
12870;DHT22;6503;48.572;13.460;2022-09-25T02:37:40;12.20;99.90
12870;DHT22;6503;48.572;13.460;2022-09-25T02:40:08;12.20;99.90
12870;DHT22;6503;48.572;13.460;2022-09-25T02:42:42;12.20;99.90
12870;DHT22;6503;48.572;13.460;2022-09-25T02:45:25;12.20;99.90
12870;DHT22;6503;48.572;13.460;2022-09-25T02:48:02;12.20;99.90
12870;DHT22;6503;48.572;13.460;2022-09-25T02:50:36;12.20;99.90
12870;DHT22;6503;48.572;13.460;2022-09-25T02:53:09;12.20;99.90
12870;DHT22;6503;48.572;13.460;2022-09-25T02:55:39;12.20;99.90
12870;DHT22;6503;48.572;13.460;2022-09-25T02:58:13;12.30;99.90
12870;DHT22;6503;48.572;13.460;2022-09-25T03:00:46;12.30;99.90
12870;DHT22;6503;48.572;13.460;2022-09-25T03:03:16;12.30;99.90
12870;DHT22;6503;48.572;13.460;2022-09-25T03:05:45;12.30;99.90
12870;DHT22;6503;48.572;13.460;2022-09-25T03:08:13;12.30;99.90
12870;DHT22;6503;48.572;13.460;2022-09-25T03:10:58;12.30;99.90
12870;DHT22;6503;48.572;13.460;2022-09-25T03:13:26;12.30;99.90
12870;DHT22;6503;48.572;13.460;2022-09-25T03:16:01;12.20;99.90
12870;DHT22;6503;48.572;13.460;2022-09-25T03:18:29;12.20;99.90
12870;DHT22;6503;48.572;13.460;2022-09-25T03:20:56;12.20;99.90
12870;DHT22;6503;48.572;13.460;2022-09-25T03:23:23;12.20;99.90
12870;DHT22;6503;48.572;13.460;2022-09-25T03:25:52;12.20;99.90
12870;DHT22;6503;48.572;13.460;2022-09-25T03:28:19;12.10;99.90
12870;DHT22;6503;48.572;13.460;2022-09-25T03:30:55;12.20;99.90
12870;DHT22;6503;48.572;13.460;2022-09-25T03:33:25;12.20;99.90
12870;DHT22;6503;48.572;13.460;2022-09-25T03:36:07;12.20;99.90
12870;DHT22;6503;48.572;13.460;2022-09-25T03:38:36;12.30;99.90
12870;DHT22;6503;48.572;13.460;2022-09-25T03:41:03;12.30;99.90
12870;DHT22;6503;48.572;13.460;2022-09-25T03:43:33;12.30;99.90
12870;DHT22;6503;48.572;13.460;2022-09-25T03:46:01;12.20;99.90
12870;DHT22;6503;48.572;13.460;2022-09-25T03:48:29;12.20;99.90
12870;DHT22;6503;48.572;13.460;2022-09-25T03:50:57;12.30;99.90
12870;DHT22;6503;48.572;13.460;2022-09-25T03:53:24;12.30;99.90
12870;DHT22;6503;48.572;13.460;2022-09-25T03:55:51;12.30;99.90
12870;DHT22;6503;48.572;13.460;2022-09-25T03:58:18;12.20;99.90
12870;DHT22;6503;48.572;13.460;2022-09-25T04:00:46;12.30;99.90
12870;DHT22;6503;48.572;13.460;2022-09-25T04:03:13;12.30;99.90
12870;DHT22;6503;48.572;13.460;2022-09-25T04:05:42;12.30;99.90
12870;DHT22;6503;48.572;13.460;2022-09-25T04:08:09;12.30;99.90
12870;DHT22;6503;48.572;13.460;2022-09-25T04:10:36;12.30;99.90
12870;DHT22;6503;48.572;13.460;2022-09-25T04:13:04;12.30;99.90
12870;DHT22;6503;48.572;13.460;2022-09-25T04:15:31;12.30;99.90
12870;DHT22;6503;48.572;13.460;2022-09-25T04:17:58;12.30;99.90
12870;DHT22;6503;48.572;13.460;2022-09-25T04:20:25;12.30;99.90
12870;DHT22;6503;48.572;13.460;2022-09-25T04:22:54;12.20;99.90
12870;DHT22;6503;48.572;13.460;2022-09-25T04:25:20;12.20;99.90
12870;DHT22;6503;48.572;13.460;2022-09-25T04:27:51;12.10;99.90
12870;DHT22;6503;48.572;13.460;2022-09-25T04:30:18;12.10;99.90
12870;DHT22;6503;48.572;13.460;2022-09-25T04:32:46;12.20;99.90
12870;DHT22;6503;48.572;13.460;2022-09-25T04:35:30;12.20;99.90
12870;DHT22;6503;48.572;13.460;2022-09-25T04:37:58;12.20;99.90
12870;DHT22;6503;48.572;13.460;2022-09-25T04:40:26;12.20;99.90
12870;DHT22;6503;48.572;13.460;2022-09-25T04:42:55;12.20;99.90
12870;DHT22;6503;48.572;13.460;2022-09-25T04:45:22;12.10;99.90
12870;DHT22;6503;48.572;13.460;2022-09-25T04:47:51;12.10;99.90
12870;DHT22;6503;48.572;13.460;2022-09-25T04:50:18;12.10;99.90
12870;DHT22;6503;48.572;13.460;2022-09-25T04:52:45;12.10;99.90
12870;DHT22;6503;48.572;13.460;2022-09-25T04:55:13;12.10;99.90
12870;DHT22;6503;48.572;13.460;2022-09-25T04:57:41;12.10;99.90
12870;DHT22;6503;48.572;13.460;2022-09-25T05:00:09;12.10;99.90
12870;DHT22;6503;48.572;13.460;2022-09-25T05:02:36;12.20;99.90
12870;DHT22;6503;48.572;13.460;2022-09-25T05:05:03;12.30;99.90
12870;DHT22;6503;48.572;13.460;2022-09-25T05:07:32;12.30;99.90
12870;DHT22;6503;48.572;13.460;2022-09-25T05:09:59;12.20;99.90
12870;DHT22;6503;48.572;13.460;2022-09-25T05:12:28;12.30;99.90
12870;DHT22;6503;48.572;13.460;2022-09-25T05:14:54;12.20;99.90
12870;DHT22;6503;48.572;13.460;2022-09-25T05:17:22;12.20;99.90
12870;DHT22;6503;48.572;13.460;2022-09-25T05:19:49;12.20;99.90
12870;DHT22;6503;48.572;13.460;2022-09-25T05:22:16;12.20;99.90
12870;DHT22;6503;48.572;13.460;2022-09-25T05:24:42;12.20;99.90
12870;DHT22;6503;48.572;13.460;2022-09-25T05:27:09;12.20;99.90
12870;DHT22;6503;48.572;13.460;2022-09-25T05:29:38;12.10;99.90
12870;DHT22;6503;48.572;13.460;2022-09-25T05:32:05;12.00;99.90
12870;DHT22;6503;48.572;13.460;2022-09-25T05:34:32;12.10;99.90
12870;DHT22;6503;48.572;13.460;2022-09-25T05:36:59;12.10;99.90
12870;DHT22;6503;48.572;13.460;2022-09-25T05:39:26;12.10;99.90
12870;DHT22;6503;48.572;13.460;2022-09-25T05:41:54;12.10;99.90
12870;DHT22;6503;48.572;13.460;2022-09-25T05:44:21;12.10;99.90
12870;DHT22;6503;48.572;13.460;2022-09-25T05:46:53;12.20;99.90
12870;DHT22;6503;48.572;13.460;2022-09-25T05:49:21;12.20;99.90
12870;DHT22;6503;48.572;13.460;2022-09-25T05:51:48;12.30;99.90
12870;DHT22;6503;48.572;13.460;2022-09-25T05:54:15;12.30;99.90
12870;DHT22;6503;48.572;13.460;2022-09-25T05:56:42;12.30;99.90
12870;DHT22;6503;48.572;13.460;2022-09-25T05:59:08;12.40;99.90
12870;DHT22;6503;48.572;13.460;2022-09-25T06:01:36;12.40;99.90
12870;DHT22;6503;48.572;13.460;2022-09-25T06:04:05;12.30;99.90
12870;DHT22;6503;48.572;13.460;2022-09-25T06:06:31;12.20;99.90
12870;DHT22;6503;48.572;13.460;2022-09-25T06:08:58;12.10;99.90
12870;DHT22;6503;48.572;13.460;2022-09-25T06:11:25;12.10;99.90
12870;DHT22;6503;48.572;13.460;2022-09-25T06:13:52;12.20;99.90
12870;DHT22;6503;48.572;13.460;2022-09-25T06:16:20;12.30;99.90
12870;DHT22;6503;48.572;13.460;2022-09-25T06:18:47;12.40;99.90
12870;DHT22;6503;48.572;13.460;2022-09-25T06:21:16;12.40;99.90
12870;DHT22;6503;48.572;13.460;2022-09-25T06:23:43;12.40;99.90
12870;DHT22;6503;48.572;13.460;2022-09-25T06:26:11;12.40;99.90
12870;DHT22;6503;48.572;13.460;2022-09-25T06:28:38;12.50;99.90
12870;DHT22;6503;48.572;13.460;2022-09-25T06:31:05;12.60;99.90
12870;DHT22;6503;48.572;13.460;2022-09-25T06:33:32;12.60;99.90
12870;DHT22;6503;48.572;13.460;2022-09-25T06:35:59;12.60;99.90
12870;DHT22;6503;48.572;13.460;2022-09-25T06:38:27;12.60;99.90
12870;DHT22;6503;48.572;13.460;2022-09-25T06:40:54;12.70;99.90
12870;DHT22;6503;48.572;13.460;2022-09-25T06:43:21;12.80;99.90
12870;DHT22;6503;48.572;13.460;2022-09-25T06:45:47;12.80;99.90
12870;DHT22;6503;48.572;13.460;2022-09-25T06:48:16;12.90;99.90
12870;DHT22;6503;48.572;13.460;2022-09-25T06:50:45;13.00;99.90
12870;DHT22;6503;48.572;13.460;2022-09-25T06:53:13;13.00;99.90
12870;DHT22;6503;48.572;13.460;2022-09-25T06:55:42;13.00;99.90
12870;DHT22;6503;48.572;13.460;2022-09-25T06:58:11;13.00;99.90
12870;DHT22;6503;48.572;13.460;2022-09-25T07:00:38;13.00;99.90
12870;DHT22;6503;48.572;13.460;2022-09-25T07:03:06;13.10;99.90
12870;DHT22;6503;48.572;13.460;2022-09-25T07:05:50;13.10;99.90
12870;DHT22;6503;48.572;13.460;2022-09-25T07:08:17;13.10;99.90
12870;DHT22;6503;48.572;13.460;2022-09-25T07:10:51;13.20;99.90
12870;DHT22;6503;48.572;13.460;2022-09-25T07:13:19;13.20;99.90
12870;DHT22;6503;48.572;13.460;2022-09-25T07:15:52;13.20;99.90
12870;DHT22;6503;48.572;13.460;2022-09-25T07:18:19;13.30;99.90
12870;DHT22;6503;48.572;13.460;2022-09-25T07:20:46;13.40;99.90
12870;DHT22;6503;48.572;13.460;2022-09-25T07:23:13;13.40;99.90
12870;DHT22;6503;48.572;13.460;2022-09-25T07:25:41;13.40;99.90
12870;DHT22;6503;48.572;13.460;2022-09-25T07:28:10;13.40;99.90
12870;DHT22;6503;48.572;13.460;2022-09-25T07:30:39;13.40;99.90
12870;DHT22;6503;48.572;13.460;2022-09-25T07:33:06;13.50;99.90
12870;DHT22;6503;48.572;13.460;2022-09-25T07:35:33;13.50;99.90
12870;DHT22;6503;48.572;13.460;2022-09-25T07:38:00;13.50;99.90
12870;DHT22;6503;48.572;13.460;2022-09-25T07:40:28;13.50;99.90
12870;DHT22;6503;48.572;13.460;2022-09-25T07:42:57;13.60;99.90
12870;DHT22;6503;48.572;13.460;2022-09-25T07:45:26;13.70;99.90
12870;DHT22;6503;48.572;13.460;2022-09-25T07:47:56;13.80;99.90
12870;DHT22;6503;48.572;13.460;2022-09-25T07:50:22;13.90;99.90
12870;DHT22;6503;48.572;13.460;2022-09-25T07:52:49;14.00;99.90
12870;DHT22;6503;48.572;13.460;2022-09-25T07:55:16;14.10;99.90
12870;DHT22;6503;48.572;13.460;2022-09-25T07:57:43;14.20;99.90
12870;DHT22;6503;48.572;13.460;2022-09-25T08:00:11;14.30;99.90
12870;DHT22;6503;48.572;13.460;2022-09-25T08:02:40;14.30;99.90
12870;DHT22;6503;48.572;13.460;2022-09-25T08:05:08;14.50;99.90
12870;DHT22;6503;48.572;13.460;2022-09-25T08:07:36;14.60;99.90
12870;DHT22;6503;48.572;13.460;2022-09-25T08:10:03;14.80;99.90
12870;DHT22;6503;48.572;13.460;2022-09-25T08:12:31;15.00;99.90
12870;DHT22;6503;48.572;13.460;2022-09-25T08:14:58;15.20;99.90
12870;DHT22;6503;48.572;13.460;2022-09-25T08:17:26;15.30;99.90
12870;DHT22;6503;48.572;13.460;2022-09-25T08:19:57;15.40;99.90
12870;DHT22;6503;48.572;13.460;2022-09-25T08:22:25;15.50;99.90
12870;DHT22;6503;48.572;13.460;2022-09-25T08:24:52;15.50;99.90
12870;DHT22;6503;48.572;13.460;2022-09-25T08:27:19;15.60;99.90
12870;DHT22;6503;48.572;13.460;2022-09-25T08:29:46;15.60;99.90
12870;DHT22;6503;48.572;13.460;2022-09-25T08:32:13;15.70;99.90
12870;DHT22;6503;48.572;13.460;2022-09-25T08:34:40;15.80;99.90
12870;DHT22;6503;48.572;13.460;2022-09-25T08:37:09;15.90;99.90
12870;DHT22;6503;48.572;13.460;2022-09-25T08:39:35;15.90;99.90
12870;DHT22;6503;48.572;13.460;2022-09-25T08:42:03;15.90;99.90
12870;DHT22;6503;48.572;13.460;2022-09-25T08:44:35;15.80;99.90
12870;DHT22;6503;48.572;13.460;2022-09-25T08:47:05;15.90;99.90
12870;DHT22;6503;48.572;13.460;2022-09-25T08:49:59;15.90;99.90
12870;DHT22;6503;48.572;13.460;2022-09-25T08:52:29;16.00;99.90
12870;DHT22;6503;48.572;13.460;2022-09-25T08:54:57;16.00;99.90
12870;DHT22;6503;48.572;13.460;2022-09-25T08:57:29;16.00;99.90
12870;DHT22;6503;48.572;13.460;2022-09-25T09:00:03;16.10;99.90
12870;DHT22;6503;48.572;13.460;2022-09-25T09:02:36;16.10;99.90
12870;DHT22;6503;48.572;13.460;2022-09-25T09:05:08;16.20;99.90
12870;DHT22;6503;48.572;13.460;2022-09-25T09:07:43;16.20;99.90
12870;DHT22;6503;48.572;13.460;2022-09-25T09:10:20;16.10;99.90
12870;DHT22;6503;48.572;13.460;2022-09-25T09:12:57;16.30;99.90
12870;DHT22;6503;48.572;13.460;2022-09-25T09:15:31;16.40;99.90
12870;DHT22;6503;48.572;13.460;2022-09-25T09:18:00;16.50;99.90
12870;DHT22;6503;48.572;13.460;2022-09-25T09:20:40;16.60;99.90
12870;DHT22;6503;48.572;13.460;2022-09-25T09:23:09;16.60;99.90
12870;DHT22;6503;48.572;13.460;2022-09-25T09:25:49;16.60;99.90
12870;DHT22;6503;48.572;13.460;2022-09-25T09:31:23;16.90;99.90
12870;DHT22;6503;48.572;13.460;2022-09-25T09:33:59;17.00;99.90
12870;DHT22;6503;48.572;13.460;2022-09-25T09:36:30;17.10;99.90
12870;DHT22;6503;48.572;13.460;2022-09-25T09:39:06;17.10;99.90
12870;DHT22;6503;48.572;13.460;2022-09-25T09:41:48;17.10;99.90
12870;DHT22;6503;48.572;13.460;2022-09-25T09:44:29;17.00;99.90
12870;DHT22;6503;48.572;13.460;2022-09-25T09:47:06;17.00;99.90
12870;DHT22;6503;48.572;13.460;2022-09-25T09:49:42;17.00;99.90
12870;DHT22;6503;48.572;13.460;2022-09-25T09:52:13;17.20;99.90
12870;DHT22;6503;48.572;13.460;2022-09-25T09:54:47;17.40;99.90
12870;DHT22;6503;48.572;13.460;2022-09-25T09:57:20;17.60;99.90
12870;DHT22;6503;48.572;13.460;2022-09-25T09:59:57;17.80;99.90
12870;DHT22;6503;48.572;13.460;2022-09-25T10:02:29;17.70;99.90
12870;DHT22;6503;48.572;13.460;2022-09-25T10:05:01;17.60;99.90
12870;DHT22;6503;48.572;13.460;2022-09-25T10:07:33;17.70;99.90
12870;DHT22;6503;48.572;13.460;2022-09-25T10:10:11;17.70;99.90
12870;DHT22;6503;48.572;13.460;2022-09-25T10:12:38;17.70;99.90
12870;DHT22;6503;48.572;13.460;2022-09-25T10:15:16;17.70;99.90
12870;DHT22;6503;48.572;13.460;2022-09-25T10:17:46;17.80;99.90
12870;DHT22;6503;48.572;13.460;2022-09-25T10:20:17;17.90;99.90
12870;DHT22;6503;48.572;13.460;2022-09-25T10:22:45;17.80;99.90
12870;DHT22;6503;48.572;13.460;2022-09-25T10:25:33;17.80;99.90
12870;DHT22;6503;48.572;13.460;2022-09-25T10:28:20;17.60;99.90
12870;DHT22;6503;48.572;13.460;2022-09-25T10:30:48;17.60;99.90
12870;DHT22;6503;48.572;13.460;2022-09-25T10:33:18;17.40;99.90
12870;DHT22;6503;48.572;13.460;2022-09-25T10:35:46;17.20;99.90
12870;DHT22;6503;48.572;13.460;2022-09-25T10:38:35;17.10;99.90
12870;DHT22;6503;48.572;13.460;2022-09-25T10:41:07;17.00;99.90
12870;DHT22;6503;48.572;13.460;2022-09-25T10:43:48;17.00;99.90
12870;DHT22;6503;48.572;13.460;2022-09-25T10:46:26;17.10;99.90
12870;DHT22;6503;48.572;13.460;2022-09-25T10:49:15;17.20;99.90
12870;DHT22;6503;48.572;13.460;2022-09-25T10:52:02;17.30;99.90
12870;DHT22;6503;48.572;13.460;2022-09-25T10:54:30;17.50;99.90
12870;DHT22;6503;48.572;13.460;2022-09-25T10:56:59;17.70;99.90
12870;DHT22;6503;48.572;13.460;2022-09-25T10:59:27;17.80;99.90
12870;DHT22;6503;48.572;13.460;2022-09-25T11:01:55;17.80;99.90
12870;DHT22;6503;48.572;13.460;2022-09-25T11:04:23;17.60;99.90
12870;DHT22;6503;48.572;13.460;2022-09-25T11:06:53;17.50;99.90
12870;DHT22;6503;48.572;13.460;2022-09-25T11:09:23;17.50;99.90
12870;DHT22;6503;48.572;13.460;2022-09-25T11:11:52;17.70;99.90
12870;DHT22;6503;48.572;13.460;2022-09-25T11:14:26;18.00;99.90
12870;DHT22;6503;48.572;13.460;2022-09-25T11:16:58;18.20;99.90
12870;DHT22;6503;48.572;13.460;2022-09-25T11:19:26;18.40;99.90
12870;DHT22;6503;48.572;13.460;2022-09-25T11:24:46;18.50;99.90
12870;DHT22;6503;48.572;13.460;2022-09-25T11:27:19;18.50;99.90
12870;DHT22;6503;48.572;13.460;2022-09-25T11:29:56;18.60;99.90
12870;DHT22;6503;48.572;13.460;2022-09-25T11:32:31;18.60;99.90
12870;DHT22;6503;48.572;13.460;2022-09-25T11:35:16;18.60;99.90
12870;DHT22;6503;48.572;13.460;2022-09-25T11:37:51;18.70;99.90
12870;DHT22;6503;48.572;13.460;2022-09-25T11:40:32;18.80;99.90
12870;DHT22;6503;48.572;13.460;2022-09-25T11:43:23;18.70;99.90
12870;DHT22;6503;48.572;13.460;2022-09-25T11:45:57;18.60;99.90
12870;DHT22;6503;48.572;13.460;2022-09-25T11:48:33;18.50;99.90
12870;DHT22;6503;48.572;13.460;2022-09-25T11:51:11;18.40;99.90
12870;DHT22;6503;48.572;13.460;2022-09-25T11:53:45;18.50;99.90
12870;DHT22;6503;48.572;13.460;2022-09-25T11:56:25;18.50;99.90
12870;DHT22;6503;48.572;13.460;2022-09-25T11:59:09;18.40;99.90
12870;DHT22;6503;48.572;13.460;2022-09-25T12:01:45;18.40;99.90
12870;DHT22;6503;48.572;13.460;2022-09-25T12:07:45;18.40;99.90
12870;DHT22;6503;48.572;13.460;2022-09-25T12:10:25;18.40;99.90
12870;DHT22;6503;48.572;13.460;2022-09-25T12:12:58;18.30;99.90
12870;DHT22;6503;48.572;13.460;2022-09-25T12:15:41;18.20;99.90
12870;DHT22;6503;48.572;13.460;2022-09-25T12:18:19;18.10;99.90
12870;DHT22;6503;48.572;13.460;2022-09-25T12:20:51;18.10;99.90
12870;DHT22;6503;48.572;13.460;2022-09-25T12:23:28;18.00;99.90
12870;DHT22;6503;48.572;13.460;2022-09-25T12:26:12;18.00;99.90
12870;DHT22;6503;48.572;13.460;2022-09-25T12:28:52;18.00;99.90
12870;DHT22;6503;48.572;13.460;2022-09-25T12:31:28;18.00;99.90
12870;DHT22;6503;48.572;13.460;2022-09-25T12:34:11;18.00;99.90
12870;DHT22;6503;48.572;13.460;2022-09-25T12:36:43;18.00;99.90
12870;DHT22;6503;48.572;13.460;2022-09-25T12:39:24;18.10;99.90
12870;DHT22;6503;48.572;13.460;2022-09-25T12:41:59;18.00;99.90
12870;DHT22;6503;48.572;13.460;2022-09-25T12:44:37;18.10;99.90
12870;DHT22;6503;48.572;13.460;2022-09-25T12:47:08;18.00;99.90
12870;DHT22;6503;48.572;13.460;2022-09-25T12:49:42;18.00;99.90
12870;DHT22;6503;48.572;13.460;2022-09-25T12:52:13;18.00;99.90
12870;DHT22;6503;48.572;13.460;2022-09-25T12:54:49;17.90;99.90
12870;DHT22;6503;48.572;13.460;2022-09-25T12:57:21;17.80;99.90
12870;DHT22;6503;48.572;13.460;2022-09-25T12:59:53;17.80;99.90
12870;DHT22;6503;48.572;13.460;2022-09-25T13:02:28;17.90;99.90
12870;DHT22;6503;48.572;13.460;2022-09-25T13:05:06;18.00;99.90
12870;DHT22;6503;48.572;13.460;2022-09-25T13:07:38;18.00;99.90
12870;DHT22;6503;48.572;13.460;2022-09-25T13:10:18;18.00;99.90
12870;DHT22;6503;48.572;13.460;2022-09-25T13:12:47;18.00;99.90
12870;DHT22;6503;48.572;13.460;2022-09-25T13:15:17;18.00;99.90
12870;DHT22;6503;48.572;13.460;2022-09-25T13:17:48;18.00;99.90
12870;DHT22;6503;48.572;13.460;2022-09-25T13:20:47;18.00;99.90
12870;DHT22;6503;48.572;13.460;2022-09-25T13:23:17;18.00;99.90
12870;DHT22;6503;48.572;13.460;2022-09-25T13:25:46;18.10;99.90
12870;DHT22;6503;48.572;13.460;2022-09-25T13:28:19;18.10;99.90
12870;DHT22;6503;48.572;13.460;2022-09-25T13:31:00;18.10;99.90
12870;DHT22;6503;48.572;13.460;2022-09-25T13:33:35;18.20;99.90
12870;DHT22;6503;48.572;13.460;2022-09-25T13:36:26;18.30;99.90
12870;DHT22;6503;48.572;13.460;2022-09-25T13:38:57;18.30;99.90
12870;DHT22;6503;48.572;13.460;2022-09-25T13:41:48;18.30;99.90
12870;DHT22;6503;48.572;13.460;2022-09-25T13:53:26;18.30;99.90
12870;DHT22;6503;48.572;13.460;2022-09-25T13:56:27;18.20;99.90
12870;DHT22;6503;48.572;13.460;2022-09-25T14:01:49;18.20;99.90
12870;DHT22;6503;48.572;13.460;2022-09-25T14:04:36;18.10;99.90
12870;DHT22;6503;48.572;13.460;2022-09-25T14:07:10;18.00;99.90
12870;DHT22;6503;48.572;13.460;2022-09-25T14:09:43;17.90;99.90
12870;DHT22;6503;48.572;13.460;2022-09-25T14:12:25;17.90;99.90
12870;DHT22;6503;48.572;13.460;2022-09-25T14:14:56;17.80;99.90
12870;DHT22;6503;48.572;13.460;2022-09-25T14:17:27;17.90;99.90
12870;DHT22;6503;48.572;13.460;2022-09-25T14:19:59;17.90;99.90
12870;DHT22;6503;48.572;13.460;2022-09-25T14:22:37;17.90;99.90
12870;DHT22;6503;48.572;13.460;2022-09-25T14:25:28;17.90;99.90
12870;DHT22;6503;48.572;13.460;2022-09-25T14:27:58;17.80;99.90
12870;DHT22;6503;48.572;13.460;2022-09-25T14:30:25;17.80;99.90
12870;DHT22;6503;48.572;13.460;2022-09-25T14:33:07;17.70;99.90
12870;DHT22;6503;48.572;13.460;2022-09-25T14:35:45;17.60;99.90
12870;DHT22;6503;48.572;13.460;2022-09-25T14:41:29;17.40;99.90
12870;DHT22;6503;48.572;13.460;2022-09-25T14:44:12;17.40;99.90
12870;DHT22;6503;48.572;13.460;2022-09-25T14:46:42;17.30;99.90
12870;DHT22;6503;48.572;13.460;2022-09-25T14:49:20;17.30;99.90
12870;DHT22;6503;48.572;13.460;2022-09-25T14:51:53;17.30;99.90
12870;DHT22;6503;48.572;13.460;2022-09-25T14:54:24;17.30;99.90
12870;DHT22;6503;48.572;13.460;2022-09-25T14:56:57;17.20;99.90
12870;DHT22;6503;48.572;13.460;2022-09-25T14:59:30;17.20;99.90
12870;DHT22;6503;48.572;13.460;2022-09-25T15:02:04;17.10;99.90
12870;DHT22;6503;48.572;13.460;2022-09-25T15:04:36;17.00;99.90
12870;DHT22;6503;48.572;13.460;2022-09-25T15:07:13;16.90;99.90
12870;DHT22;6503;48.572;13.460;2022-09-25T15:09:43;16.90;99.90
12870;DHT22;6503;48.572;13.460;2022-09-25T15:12:27;16.90;99.90
12870;DHT22;6503;48.572;13.460;2022-09-25T15:15:00;16.90;99.90
12870;DHT22;6503;48.572;13.460;2022-09-25T15:17:30;16.70;99.90
12870;DHT22;6503;48.572;13.460;2022-09-25T15:19:59;16.60;99.90
12870;DHT22;6503;48.572;13.460;2022-09-25T15:22:32;16.60;99.90
12870;DHT22;6503;48.572;13.460;2022-09-25T15:25:02;16.50;99.90
12870;DHT22;6503;48.572;13.460;2022-09-25T15:27:31;16.40;99.90
12870;DHT22;6503;48.572;13.460;2022-09-25T15:30:00;16.40;99.90
12870;DHT22;6503;48.572;13.460;2022-09-25T15:32:33;16.40;99.90
12870;DHT22;6503;48.572;13.460;2022-09-25T15:35:07;16.40;99.90
12870;DHT22;6503;48.572;13.460;2022-09-25T15:37:42;16.40;99.90
12870;DHT22;6503;48.572;13.460;2022-09-25T15:40:19;16.40;99.90
12870;DHT22;6503;48.572;13.460;2022-09-25T15:42:48;16.50;99.90
12870;DHT22;6503;48.572;13.460;2022-09-25T15:45:45;16.50;99.90
12870;DHT22;6503;48.572;13.460;2022-09-25T15:48:18;16.50;99.90
12870;DHT22;6503;48.572;13.460;2022-09-25T15:50:47;16.50;99.90
12870;DHT22;6503;48.572;13.460;2022-09-25T15:53:22;16.40;99.90
12870;DHT22;6503;48.572;13.460;2022-09-25T15:56:00;16.30;99.90
12870;DHT22;6503;48.572;13.460;2022-09-25T15:58:29;16.30;99.90
12870;DHT22;6503;48.572;13.460;2022-09-25T16:00:59;16.20;99.90
12870;DHT22;6503;48.572;13.460;2022-09-25T16:03:48;16.10;99.90
12870;DHT22;6503;48.572;13.460;2022-09-25T16:06:41;16.10;99.90
12870;DHT22;6503;48.572;13.460;2022-09-25T16:09:27;16.00;99.90
12870;DHT22;6503;48.572;13.460;2022-09-25T16:12:20;16.00;99.90
12870;DHT22;6503;48.572;13.460;2022-09-25T16:14:49;16.00;99.90
12870;DHT22;6503;48.572;13.460;2022-09-25T16:17:21;16.00;99.90
12870;DHT22;6503;48.572;13.460;2022-09-25T16:20:00;16.00;99.90
12870;DHT22;6503;48.572;13.460;2022-09-25T16:22:37;16.00;99.90
12870;DHT22;6503;48.572;13.460;2022-09-25T16:25:15;15.90;99.90